EST,Max TemperatureF,Mean TemperatureF,Min TemperatureF,Max Dew PointF,MeanDew PointF,Min DewpointF,Max Humidity, Mean Humidity, Min Humidity, Max Sea Level PressureIn, Mean Sea Level PressureIn, Min Sea Level PressureIn, Max VisibilityMiles, Mean VisibilityMiles, Min VisibilityMiles, Max Wind SpeedMPH, Mean Wind SpeedMPH, Max Gust SpeedMPH,PrecipitationIn, CloudCover, Events, WindDirDegrees
2013-1-1,35,22,8,27,15,4,73,63,52,30.01,29.90,29.78,10,10,7,25,11,35,T,6,Snow,289
2013-1-2,26,15,3,15,7,-6,83,68,52,30.26,30.06,29.98,10,10,10,21,8,28,T,4,Snow,301
2013-1-3,18,7,-5,8,-2,-9,79,66,52,30.29,30.16,30.01,10,10,7,9,3,12,T,5,Snow,249
2013-1-4,37,27,17,21,17,8,81,65,48,30.00,29.94,29.87,10,10,10,21,7,29,T,7,Snow,231
2013-1-5,36,28,19,25,20,15,84,66,47,30.27,30.16,29.95,10,10,10,28,11,37,T,5,Snow,279
2013-1-6,39,31,22,29,24,18,85,70,54,30.19,30.03,29.92,10,9,2,13,5,20,T,7,Rain-Snow,172
2013-1-7,37,26,14,30,20,12,88,73,58,30.41,30.28,30.01,10,10,7,26,5,33,T,5,Rain-Snow,318
2013-1-8,39,24,9,25,17,7,96,75,54,30.39,30.34,30.30,10,9,6,12,2,16,0.00,3,,182
2013-1-9,44,29,14,30,22,12,92,69,45,30.39,30.23,30.01,10,9,6,36,7,51,T,5,,195
2013-1-10,43,34,24,28,24,21,81,67,53,30.58,30.45,30.21,10,10,10,35,11,45,T,2,,298
2013-1-11,38,30,21,36,27,19,92,81,69,30.55,30.31,30.13,10,9,5,17,6,23,0.14,8,Rain,169
2013-1-12,43,40,36,41,38,35,100,95,89,30.16,30.12,30.09,10,3,0,15,5,18,T,8,Fog,170
2013-1-13,46,42,38,45,41,37,100,93,86,30.15,30.04,29.95,7,2,0,20,9,30,0.00,8,Fog,170
2013-1-14,47,41,34,45,34,22,100,77,54,30.34,30.13,29.88,10,8,2,25,13,35,0.01,7,Rain,264
2013-1-15,37,32,27,23,21,18,75,61,47,30.37,30.31,30.25,10,10,10,13,5,17,0.00,7,,296
2013-1-16,31,30,28,30,27,21,100,85,69,30.23,30.00,29.83,10,2,0,9,2,13,0.31,8,Fog-Snow,190
2013-1-17,37,30,22,29,21,6,92,69,46,30.18,30.03,29.86,10,9,3,20,9,25,T,8,,259
2013-1-18,24,17,10,8,3,-6,66,52,37,30.43,30.34,30.14,10,10,10,20,8,25,0.00,4,,295
2013-1-19,42,33,24,24,18,9,58,52,45,30.27,30.05,29.80,10,10,10,23,13,30,0.00,6,,172
2013-1-20,44,33,21,32,21,9,68,55,41,30.04,29.79,29.55,10,9,2,30,16,44,T,5,Rain-Snow,269
2013-1-21,26,22,17,17,11,7,84,67,50,30.09,29.98,29.82,10,10,7,15,5,20,T,7,Snow,197
2013-1-22,20,14,7,12,3,-6,80,57,34,30.15,30.01,29.81,10,7,0,26,12,32,0.02,5,Snow,287
2013-1-23,10,5,-1,1,-7,-9,69,57,45,30.24,30.20,30.14,10,10,10,24,7,33,T,2,,289
2013-1-24,15,6,-4,0,-5,-9,79,62,44,30.40,30.28,30.19,10,10,10,29,10,36,0.00,1,,305
2013-1-25,17,11,4,10,1,-6,88,66,43,30.43,30.27,30.09,10,7,2,22,7,31,0.08,6,Snow,355
2013-1-26,21,14,6,7,4,1,88,67,45,30.36,30.20,30.09,10,9,6,20,7,24,T,3,Snow,329
2013-1-27,27,16,4,5,1,-2,91,62,32,30.54,30.48,30.37,10,10,10,14,4,16,0.00,1,,305
2013-1-28,30,23,15,27,19,5,92,72,51,30.50,30.17,29.97,10,4,0,14,2,18,0.16,8,Fog-Rain-Snow,135
2013-1-29,39,32,25,36,28,23,96,91,85,30.16,30.08,30.00,6,3,1,17,4,25,0.14,8,Rain,359
2013-1-30,56,48,39,54,46,36,100,93,85,30.01,29.67,29.33,7,3,0,25,16,35,0.21,8,Rain,176
2013-1-31,54,39,23,52,30,17,100,72,44,29.66,29.35,28.92,10,6,1,38,16,52,0.39,7,Rain-Snow,263